Capitol Logistics 17




RCTP
Taiwan Taoyuan International Airport
Taipei, TW
PANC
Ted Stevens Anchorage International Airport
Anchorage, US

Route Details

Aircraft Information
Group: Large Widebodies
Types: B744,MD11
Route Data
Demand: H
Distance: 4065nm
Duration: 8h 30m
Recm'd Route: MOLKA M750 MIDAI M750 BUNGU Y81 SYOYU Y809 KAGIS A590 PABBA A590 PASRO A590 HAMND NEELL6
Origin Wx: RCTP 252230Z 03006KT 9999 FEW015 SCT065 19/17 Q1018 NOSIG RMK A3006
Dest. Wx: PANC 252253Z 17004KT 5SM R07R/6000VP6000FT -SN BR BKN022 BKN036 M01/M03 A3007 RMK AO2 SLP184 P0000 T10061033
Notes:

Financial History
Total Freight: 1,101,689lbs
Average Load: 183,615lbs/flt
Fuel Used: 1,164,269lbs
Avg. Fuel Used: 194,045lbs/flt
Fuel Expense: $1,117,772
Avg. Fuel Expense: $186,295
Avg. Fuel Cost: $0.96/lbs
Total Gross Income: $7,869,986
Pilot Pay: $1,344
Total Expenses: $862,092
Total Revenue: $5,878,258
Average Revenue: $1,311,664.38